createdAt,value
2023-05-22T00:00:17.719Z,18.73
2023-05-22T00:02:46.142Z,18.67
2023-05-22T00:05:18.546Z,18.48
2023-05-22T00:07:46.866Z,18.22
2023-05-22T00:10:15.016Z,18.65
2023-05-22T00:12:44.530Z,18.60
2023-05-22T00:15:13.315Z,18.66
2023-05-22T00:17:42.310Z,18.31
2023-05-22T00:20:11.353Z,18.25
2023-05-22T00:22:39.503Z,18.22
2023-05-22T00:25:09.149Z,18.31
2023-05-22T00:27:37.308Z,18.24
2023-05-22T00:30:09.065Z,17.81
2023-05-22T00:32:37.314Z,18.02
2023-05-22T00:35:06.639Z,17.83
2023-05-22T00:37:34.794Z,17.88
2023-05-22T00:40:03.832Z,17.95
2023-05-22T00:42:32.165Z,17.86
2023-05-22T00:45:00.479Z,18.16
2023-05-22T00:47:30.066Z,18.06
2023-05-22T00:49:58.444Z,17.63
2023-05-22T00:52:26.805Z,17.56
2023-05-22T00:54:55.191Z,17.96
2023-05-22T00:57:24.663Z,18.28
2023-05-22T00:59:52.908Z,17.98
2023-05-22T01:02:21.422Z,17.89
2023-05-22T01:04:50.951Z,17.74
2023-05-22T01:07:19.622Z,18.07
2023-05-22T01:09:47.988Z,17.98
2023-05-22T01:12:27.969Z,17.91
2023-05-22T01:15:02.811Z,17.90
2023-05-22T01:17:37.312Z,18.21
2023-05-22T01:20:14.488Z,18.15
2023-05-22T01:23:00.246Z,17.83
2023-05-22T01:25:55.357Z,17.80
2023-05-22T01:28:37.806Z,18.20
2023-05-22T01:31:11.427Z,18.93
2023-05-22T01:33:47.029Z,18.47
2023-05-22T01:36:16.861Z,18.13
2023-05-22T01:38:45.270Z,18.23
2023-05-22T01:41:13.509Z,18.88
2023-05-22T01:43:42.849Z,18.76
2023-05-22T01:46:12.468Z,18.34
2023-05-22T01:48:40.711Z,18.19
2023-05-22T01:51:13.560Z,18.25
2023-05-22T01:53:47.340Z,18.41
2023-05-22T01:56:17.176Z,18.28
2023-05-22T01:58:52.611Z,18.21
2023-05-22T02:01:23.497Z,18.10
2023-05-22T02:03:56.594Z,17.97
2023-05-22T02:06:27.150Z,18.00
2023-05-22T02:08:56.061Z,17.88
2023-05-22T02:11:26.858Z,18.23
2023-05-22T02:13:57.016Z,18.55
2023-05-22T02:16:28.857Z,18.54
2023-05-22T02:19:06.569Z,18.66
2023-05-22T02:21:37.327Z,18.65
2023-05-22T02:24:06.110Z,18.69
2023-05-22T02:26:34.467Z,18.75
2023-05-22T02:29:03.432Z,18.44
2023-05-22T02:31:33.201Z,18.42
2023-05-22T02:34:01.406Z,17.97
2023-05-22T02:36:30.975Z,17.75
2023-05-22T02:38:59.684Z,18.05
2023-05-22T02:41:28.059Z,18.28
2023-05-22T02:43:56.579Z,18.73
2023-05-22T02:46:24.877Z,18.18
2023-05-22T02:48:54.468Z,18.27
2023-05-22T02:51:22.642Z,17.92
2023-05-22T02:53:50.802Z,18.04
2023-05-22T02:56:19.075Z,18.31
2023-05-22T02:58:47.258Z,17.85
2023-05-22T03:01:15.685Z,18.10
2023-05-22T03:03:44.080Z,18.09
2023-05-22T03:06:13.850Z,18.16
2023-05-22T03:08:43.657Z,18.13
2023-05-22T03:11:11.880Z,18.19
2023-05-22T03:13:40.100Z,18.14
2023-05-22T03:16:08.524Z,17.85
2023-05-22T03:18:40.620Z,17.92
2023-05-22T03:21:08.791Z,17.77
2023-05-22T03:23:38.368Z,17.78
2023-05-22T03:26:06.596Z,17.77
2023-05-22T03:28:37.752Z,17.64
2023-05-22T03:31:09.420Z,17.67
2023-05-22T03:33:51.247Z,17.94
2023-05-22T03:36:19.744Z,17.83
2023-05-22T03:38:49.285Z,17.78
2023-05-22T03:41:17.464Z,17.82
2023-05-22T03:43:46.802Z,18.19
2023-05-22T03:46:15.146Z,17.79
2023-05-22T03:48:43.365Z,18.06
2023-05-22T03:51:11.584Z,17.71
2023-05-22T03:53:39.744Z,17.98
2023-05-22T03:56:09.481Z,18.11
2023-05-22T03:58:37.642Z,17.87
2023-05-22T04:01:10.012Z,17.74
2023-05-22T04:03:38.370Z,17.93
2023-05-22T04:06:07.646Z,17.84
2023-05-22T04:08:35.990Z,17.42
2023-05-22T04:11:05.462Z,18.00
2023-05-22T04:13:35.856Z,18.08
2023-05-22T04:16:04.654Z,18.38
2023-05-22T04:18:32.925Z,17.98
2023-05-22T04:21:01.466Z,18.19
2023-05-22T04:23:29.688Z,18.02
2023-05-22T04:25:58.328Z,18.18
2023-05-22T04:28:26.761Z,18.25
2023-05-22T04:30:57.670Z,18.29
2023-05-22T04:33:25.978Z,18.28
2023-05-22T04:35:54.584Z,18.82
2023-05-22T04:38:26.276Z,18.72
2023-05-22T04:40:55.110Z,18.76
2023-05-22T04:43:26.607Z,18.91
2023-05-22T04:45:56.577Z,19.10
2023-05-22T04:48:25.098Z,19.53
2023-05-22T04:50:54.315Z,18.53
2023-05-22T04:53:22.726Z,18.99
2023-05-22T04:55:50.914Z,19.02
2023-05-22T04:58:19.141Z,19.39
2023-05-22T05:00:47.596Z,18.91
2023-05-22T05:03:17.308Z,19.39
2023-05-22T05:05:46.009Z,19.64
2023-05-22T05:08:14.228Z,19.55
2023-05-22T05:10:42.513Z,19.59
2023-05-22T05:13:10.740Z,19.74
2023-05-22T05:15:40.691Z,20.09
2023-05-22T05:18:09.734Z,19.82
2023-05-22T05:20:39.649Z,20.16
2023-05-22T05:23:10.064Z,20.32
2023-05-22T05:25:39.015Z,20.48
2023-05-22T05:28:11.205Z,20.52
2023-05-22T05:30:40.816Z,20.56
2023-05-22T05:33:27.837Z,20.41
2023-05-22T05:36:16.428Z,20.29
2023-05-22T05:38:46.652Z,20.23
2023-05-22T05:41:16.227Z,20.63
2023-05-22T05:43:46.656Z,21.18
2023-05-22T05:46:15.878Z,20.85
2023-05-22T05:48:44.079Z,21.11
2023-05-22T05:51:12.577Z,21.30
2023-05-22T05:53:44.824Z,21.73
2023-05-22T05:56:13.072Z,21.49
2023-05-22T05:58:41.270Z,21.66
2023-05-22T06:01:36.021Z,21.68
2023-05-22T06:04:05.591Z,21.06
2023-05-22T06:06:36.611Z,21.50
2023-05-22T06:09:12.491Z,21.58
2023-05-22T06:11:59.493Z,22.07
2023-05-22T06:14:27.948Z,22.21
2023-05-22T06:16:56.421Z,22.78
2023-05-22T06:19:24.727Z,22.66
2023-05-22T06:21:53.107Z,22.97
2023-05-22T06:24:23.754Z,22.78
2023-05-22T06:26:51.988Z,23.03
2023-05-22T06:29:20.316Z,23.08
2023-05-22T06:31:49.335Z,23.07
2023-05-22T06:34:21.887Z,23.12
2023-05-22T06:36:52.162Z,23.73
2023-05-22T06:39:26.055Z,24.18
2023-05-22T06:42:29.867Z,23.81
2023-05-22T06:45:21.433Z,23.97
2023-05-22T06:48:05.419Z,24.34
2023-05-22T06:50:38.379Z,24.60
2023-05-22T06:53:06.734Z,24.53
2023-05-22T06:55:36.534Z,24.77
2023-05-22T06:58:11.727Z,24.97
2023-05-22T07:00:40.779Z,24.62
2023-05-22T07:03:15.220Z,24.81
2023-05-22T07:05:59.527Z,24.70
2023-05-22T07:08:30.729Z,24.72
2023-05-22T07:11:01.958Z,25.15
2023-05-22T07:13:32.249Z,25.15
2023-05-22T07:16:01.144Z,25.61
2023-05-22T07:18:29.582Z,25.31
2023-05-22T07:20:58.124Z,25.06
2023-05-22T07:23:26.540Z,25.45
2023-05-22T07:25:54.763Z,25.23
2023-05-22T07:28:27.929Z,24.91
2023-05-22T07:31:12.344Z,25.07
2023-05-22T07:33:40.705Z,24.90
2023-05-22T07:36:09.351Z,25.04
2023-05-22T07:38:40.165Z,25.30
2023-05-22T07:41:08.449Z,25.58
2023-05-22T07:43:38.236Z,25.47
2023-05-22T07:46:07.355Z,25.60
2023-05-22T07:48:43.694Z,26.04
2023-05-22T07:51:13.623Z,26.15
2023-05-22T07:53:42.973Z,26.08
2023-05-22T07:56:11.323Z,26.24
2023-05-22T07:58:41.069Z,26.41
2023-05-22T08:01:09.727Z,26.74
2023-05-22T08:03:38.190Z,26.61
2023-05-22T08:06:06.744Z,26.58
2023-05-22T08:08:35.174Z,26.61
2023-05-22T08:11:04.404Z,26.98
2023-05-22T08:13:33.173Z,26.72
2023-05-22T08:16:02.764Z,27.03
2023-05-22T08:18:30.963Z,27.25
2023-05-22T08:21:00.298Z,27.19
2023-05-22T08:23:28.541Z,27.03
2023-05-22T08:25:56.786Z,27.47
2023-05-22T08:28:25.015Z,27.73
2023-05-22T08:30:54.556Z,27.90
2023-05-22T08:33:24.405Z,27.74
2023-05-22T08:35:52.575Z,27.47
2023-05-22T08:38:20.946Z,27.45
2023-05-22T08:40:50.360Z,27.75
2023-05-22T08:43:22.149Z,27.85
2023-05-22T08:45:56.131Z,27.92
2023-05-22T08:48:25.834Z,27.56
2023-05-22T08:50:57.560Z,27.93
2023-05-22T08:53:26.664Z,27.84
2023-05-22T08:55:54.902Z,28.07
2023-05-22T08:58:23.385Z,28.16
2023-05-22T09:00:51.892Z,28.45
2023-05-22T09:03:21.646Z,28.28
2023-05-22T09:05:52.339Z,28.40
2023-05-22T09:08:21.368Z,28.28
2023-05-22T09:10:49.794Z,28.63
2023-05-22T09:13:28.387Z,29.02
2023-05-22T09:16:00.230Z,28.99
2023-05-22T09:18:29.576Z,28.98
2023-05-22T09:21:04.953Z,29.04
2023-05-22T09:23:35.184Z,29.74
2023-05-22T09:26:04.193Z,29.99
2023-05-22T09:28:35.302Z,30.32
2023-05-22T09:31:04.675Z,30.18
2023-05-22T09:33:33.446Z,29.90
2023-05-22T09:36:03.164Z,30.05
2023-05-22T09:38:31.624Z,30.30
2023-05-22T09:40:59.840Z,30.42
2023-05-22T09:43:28.073Z,30.80
2023-05-22T09:46:02.491Z,31.05
2023-05-22T09:48:31.041Z,30.77
2023-05-22T09:51:02.486Z,30.98
2023-05-22T09:53:31.159Z,30.92
2023-05-22T09:56:01.072Z,31.27
2023-05-22T09:58:32.035Z,31.02
2023-05-22T10:01:00.460Z,31.63
2023-05-22T10:03:28.808Z,31.29
2023-05-22T10:05:57.405Z,31.40
2023-05-22T10:08:29.459Z,31.19
2023-05-22T10:10:58.617Z,30.93
2023-05-22T10:13:27.724Z,31.83
2023-05-22T10:15:56.519Z,31.98
2023-05-22T10:18:24.777Z,32.08
2023-05-22T10:20:53.232Z,31.61
2023-05-22T10:23:22.654Z,32.12
2023-05-22T10:25:53.230Z,32.29
2023-05-22T10:28:25.175Z,32.82
2023-05-22T10:30:59.865Z,32.09
2023-05-22T10:33:58.461Z,31.52
2023-05-22T10:36:37.892Z,31.53
2023-05-22T10:39:13.889Z,31.38
2023-05-22T10:41:43.548Z,31.50
2023-05-22T10:44:11.708Z,32.00
2023-05-22T10:46:39.985Z,32.45
2023-05-22T10:49:08.957Z,32.24
2023-05-22T10:51:37.091Z,31.52
2023-05-22T10:54:05.768Z,31.92
2023-05-22T10:56:35.398Z,32.66
2023-05-22T10:59:07.862Z,32.81
2023-05-22T11:01:38.389Z,32.57
2023-05-22T11:04:16.165Z,32.79
2023-05-22T11:06:50.678Z,32.99
2023-05-22T11:09:22.925Z,33.44
2023-05-22T11:12:19.623Z,33.54
2023-05-22T11:14:58.303Z,33.39
2023-05-22T11:17:29.124Z,34.14
2023-05-22T11:20:02.194Z,34.81
2023-05-22T11:22:36.726Z,34.75
2023-05-22T11:25:08.177Z,34.91
2023-05-22T11:27:37.571Z,35.27
2023-05-22T11:30:08.568Z,36.09
2023-05-22T11:32:37.563Z,36.45
2023-05-22T11:35:08.276Z,35.79
2023-05-22T11:37:39.688Z,35.03
2023-05-22T11:40:09.003Z,34.75
2023-05-22T11:42:37.761Z,34.83
2023-05-22T11:45:08.555Z,35.05
2023-05-22T11:47:36.878Z,34.24
2023-05-22T11:50:06.828Z,34.94
2023-05-22T11:52:36.421Z,35.03
2023-05-22T11:55:06.343Z,35.65
2023-05-22T11:57:35.418Z,36.49
2023-05-22T12:00:06.467Z,35.35
2023-05-22T12:02:45.862Z,33.92
2023-05-22T12:05:16.005Z,34.19
2023-05-22T12:07:44.660Z,34.52
2023-05-22T12:10:12.905Z,35.24
2023-05-22T12:12:41.321Z,35.30
2023-05-22T12:15:10.604Z,34.97
2023-05-22T12:17:39.281Z,35.11
2023-05-22T12:20:09.391Z,35.71
2023-05-22T12:22:42.318Z,35.69
2023-05-22T12:25:15.985Z,34.55
2023-05-22T12:27:44.700Z,34.72
2023-05-22T12:30:15.123Z,34.50
2023-05-22T12:32:48.413Z,34.95
2023-05-22T12:35:19.132Z,36.13
2023-05-22T12:37:51.240Z,35.92
2023-05-22T12:40:19.740Z,35.75
2023-05-22T12:42:50.228Z,36.06
2023-05-22T12:45:18.855Z,35.43
2023-05-22T12:47:47.384Z,34.65
2023-05-22T12:50:17.055Z,35.40
2023-05-22T12:52:45.270Z,35.73
2023-05-22T12:55:13.457Z,35.91
2023-05-22T12:57:41.661Z,35.75
2023-05-22T13:00:11.313Z,35.68
2023-05-22T13:02:39.648Z,35.31
2023-05-22T13:05:08.501Z,35.95
2023-05-22T13:07:38.206Z,35.31
2023-05-22T13:10:07.310Z,35.87
2023-05-22T13:12:35.501Z,36.10
2023-05-22T13:15:04.129Z,35.60
2023-05-22T13:17:33.938Z,36.00
2023-05-22T13:20:02.090Z,36.51
2023-05-22T13:22:30.277Z,35.98
2023-05-22T13:24:59.858Z,35.76
2023-05-22T13:27:28.230Z,35.78
2023-05-22T13:29:56.444Z,35.52
2023-05-22T13:32:24.668Z,35.79
2023-05-22T13:34:52.866Z,35.66
2023-05-22T13:37:22.262Z,35.31
2023-05-22T13:39:50.424Z,35.43
2023-05-22T13:42:20.271Z,35.47
2023-05-22T13:44:48.478Z,35.35
2023-05-22T13:47:16.786Z,35.65
2023-05-22T13:49:45.152Z,35.29
2023-05-22T13:52:13.284Z,35.30
2023-05-22T13:54:41.571Z,35.65
2023-05-22T13:57:09.795Z,35.55
2023-05-22T13:59:39.282Z,35.60
2023-05-22T14:02:08.618Z,35.78
2023-05-22T14:04:36.872Z,35.52
2023-05-22T14:07:05.486Z,35.35
2023-05-22T14:09:33.682Z,35.39
2023-05-22T14:12:02.660Z,35.64
2023-05-22T14:14:30.819Z,35.98
2023-05-22T14:17:00.564Z,35.99
2023-05-22T14:19:28.933Z,34.75
2023-05-22T14:21:57.075Z,35.05
2023-05-22T14:24:25.229Z,34.60
2023-05-22T14:26:57.941Z,34.35
2023-05-22T14:29:26.569Z,33.28
2023-05-22T14:32:04.998Z,34.25
2023-05-22T14:34:33.154Z,34.22
2023-05-22T14:37:01.323Z,34.76
2023-05-22T14:39:29.594Z,34.58
2023-05-22T14:41:57.810Z,34.58
2023-05-22T14:44:25.934Z,34.38
2023-05-22T14:46:54.772Z,34.35
2023-05-22T14:49:24.318Z,34.95
2023-05-22T14:51:52.989Z,34.50
2023-05-22T14:54:23.696Z,34.51
2023-05-22T14:56:51.868Z,34.31
2023-05-22T14:59:20.050Z,34.64
2023-05-22T15:01:50.501Z,35.17
2023-05-22T15:04:18.923Z,35.67
2023-05-22T15:06:48.468Z,34.98
2023-05-22T15:09:17.126Z,34.93
2023-05-22T15:11:46.840Z,34.89
2023-05-22T15:14:14.973Z,34.61
2023-05-22T15:16:43.696Z,34.68
2023-05-22T15:19:12.017Z,34.92
2023-05-22T15:21:42.165Z,35.54
2023-05-22T15:24:11.777Z,35.80
2023-05-22T15:26:39.915Z,35.57
2023-05-22T15:29:08.120Z,35.85
2023-05-22T15:31:36.482Z,34.94
2023-05-22T15:34:04.894Z,34.92
2023-05-22T15:36:33.889Z,34.85
2023-05-22T15:39:02.845Z,34.83
2023-05-22T15:41:32.411Z,34.59
2023-05-22T15:44:00.612Z,34.12
2023-05-22T15:46:29.044Z,34.37
2023-05-22T15:48:57.394Z,35.06
2023-05-22T15:51:25.692Z,34.83
2023-05-22T15:53:53.887Z,34.06
2023-05-22T15:56:23.458Z,33.31
2023-05-22T15:58:53.090Z,32.98
2023-05-22T16:01:21.341Z,32.77
2023-05-22T16:03:49.797Z,32.80
2023-05-22T16:06:18.112Z,32.46
2023-05-22T16:08:46.289Z,32.01
2023-05-22T16:11:14.666Z,31.71
2023-05-22T16:13:43.058Z,31.86
2023-05-22T16:16:13.465Z,31.86
2023-05-22T16:18:41.738Z,31.95
2023-05-22T16:21:09.973Z,31.84
2023-05-22T16:23:38.185Z,31.06
2023-05-22T16:26:06.522Z,31.21
2023-05-22T16:28:34.782Z,31.15
2023-05-22T16:31:03.072Z,30.89
2023-05-22T16:33:32.779Z,30.55
2023-05-22T16:36:00.925Z,30.40
2023-05-22T16:38:29.139Z,30.40
2023-05-22T16:40:58.087Z,30.20
2023-05-22T16:43:26.292Z,30.28
2023-05-22T16:45:55.337Z,29.84
2023-05-22T16:48:23.963Z,29.75
2023-05-22T16:50:53.603Z,29.67
2023-05-22T16:53:21.951Z,29.69
2023-05-22T16:55:50.196Z,29.38
2023-05-22T16:58:18.536Z,29.56
2023-05-22T17:00:47.019Z,29.57
2023-05-22T17:03:15.412Z,29.31
2023-05-22T17:05:44.464Z,29.55
2023-05-22T17:08:14.124Z,29.55
2023-05-22T17:10:42.700Z,29.24
2023-05-22T17:13:12.673Z,29.18
2023-05-22T17:15:41.147Z,28.84
2023-05-22T17:18:09.627Z,28.87
2023-05-22T17:20:37.906Z,28.89
2023-05-22T17:23:07.350Z,29.31
2023-05-22T17:25:37.059Z,28.94
2023-05-22T17:28:06.041Z,28.64
2023-05-22T17:30:35.187Z,28.19
2023-05-22T17:33:05.348Z,28.30
2023-05-22T17:35:35.130Z,27.88
2023-05-22T17:38:04.962Z,27.76
2023-05-22T17:40:43.927Z,27.79
2023-05-22T17:43:19.656Z,27.60
2023-05-22T17:45:50.592Z,28.01
2023-05-22T17:48:27.575Z,27.75
2023-05-22T17:50:57.741Z,27.46
2023-05-22T17:53:27.815Z,27.48
2023-05-22T17:55:57.348Z,27.47
2023-05-22T17:58:28.041Z,27.73
2023-05-22T18:00:57.706Z,27.74
2023-05-22T18:03:27.391Z,27.75
2023-05-22T18:05:56.589Z,27.93
2023-05-22T18:08:25.805Z,27.70
2023-05-22T18:10:56.434Z,27.70
2023-05-22T18:13:25.514Z,27.47
2023-05-22T18:15:56.381Z,27.37
2023-05-22T18:18:25.574Z,27.58
2023-05-22T18:20:55.186Z,27.10
2023-05-22T18:23:24.451Z,26.97
2023-05-22T18:25:53.719Z,27.02
2023-05-22T18:28:27.048Z,26.90
2023-05-22T18:30:59.198Z,26.68
2023-05-22T18:33:28.842Z,26.75
2023-05-22T18:35:58.480Z,26.13
2023-05-22T18:38:28.017Z,25.51
2023-05-22T18:40:57.971Z,25.59
2023-05-22T18:43:28.824Z,25.57
2023-05-22T18:45:59.857Z,25.46
2023-05-22T18:48:29.847Z,25.39
2023-05-22T18:50:59.554Z,25.26
2023-05-22T18:53:28.813Z,25.17
2023-05-22T18:55:58.034Z,24.88
2023-05-22T18:58:27.485Z,24.72
2023-05-22T19:00:57.146Z,24.50
2023-05-22T19:03:27.962Z,24.72
2023-05-22T19:05:57.322Z,24.65
2023-05-22T19:08:27.465Z,24.60
2023-05-22T19:11:00.515Z,24.60
2023-05-22T19:13:29.978Z,24.39
2023-05-22T19:15:59.389Z,24.31
2023-05-22T19:18:30.141Z,24.35
2023-05-22T19:20:59.680Z,24.36
2023-05-22T19:23:30.056Z,24.33
2023-05-22T19:26:00.685Z,24.09
2023-05-22T19:28:31.656Z,23.76
2023-05-22T19:31:03.574Z,23.60
2023-05-22T19:33:34.406Z,23.72
2023-05-22T19:36:03.626Z,23.69
2023-05-22T19:38:32.793Z,23.72
2023-05-22T19:41:01.902Z,23.79
2023-05-22T19:43:31.830Z,23.77
2023-05-22T19:46:00.928Z,23.62
2023-05-22T19:48:32.173Z,23.73
2023-05-22T19:51:02.562Z,23.71
2023-05-22T19:53:32.705Z,23.48
2023-05-22T19:56:02.447Z,23.42
2023-05-22T19:58:31.349Z,23.28
2023-05-22T20:01:00.145Z,23.30
2023-05-22T20:03:29.020Z,23.21
2023-05-22T20:05:57.823Z,23.22
2023-05-22T20:08:28.978Z,23.09
2023-05-22T20:10:57.513Z,22.92
2023-05-22T20:13:25.729Z,23.00
2023-05-22T20:15:54.062Z,22.98
2023-05-22T20:18:23.416Z,23.06
2023-05-22T20:20:52.625Z,23.10
2023-05-22T20:23:21.859Z,22.97
2023-05-22T20:25:52.382Z,22.91
2023-05-22T20:28:21.425Z,22.87
2023-05-22T20:30:51.785Z,23.20
2023-05-22T20:33:20.830Z,23.63
2023-05-22T20:35:52.820Z,23.44
2023-05-22T20:38:22.692Z,22.93
2023-05-22T20:40:53.178Z,22.86
2023-05-22T20:43:22.010Z,22.90
2023-05-22T20:45:50.781Z,23.02
2023-05-22T20:48:19.533Z,22.60
2023-05-22T20:50:48.966Z,22.20
2023-05-22T20:53:17.628Z,22.41
2023-05-22T20:55:46.659Z,22.36
2023-05-22T20:58:17.372Z,22.12
2023-05-22T21:00:45.889Z,22.03
2023-05-22T21:03:14.062Z,22.28
2023-05-22T21:05:42.320Z,22.49
2023-05-22T21:08:10.607Z,22.19
2023-05-22T21:10:39.100Z,22.22
2023-05-22T21:13:07.760Z,22.53
2023-05-22T21:15:37.413Z,22.56
2023-05-22T21:18:05.646Z,22.39
2023-05-22T21:20:33.825Z,21.86
2023-05-22T21:23:01.999Z,21.71
2023-05-22T21:25:30.412Z,21.37
2023-05-22T21:27:58.574Z,21.57
2023-05-22T21:30:26.716Z,21.53
2023-05-22T21:32:56.383Z,21.22
2023-05-22T21:35:24.611Z,21.17
2023-05-22T21:37:53.814Z,20.96
2023-05-22T21:40:22.006Z,21.06
2023-05-22T21:42:50.154Z,21.12
2023-05-22T21:45:18.309Z,21.14
2023-05-22T21:47:46.510Z,21.09
2023-05-22T21:50:16.317Z,21.05
2023-05-22T21:52:44.534Z,20.84
2023-05-22T21:55:12.729Z,21.12
2023-05-22T21:57:40.958Z,21.34
2023-05-22T22:00:10.212Z,20.67
2023-05-22T22:02:38.402Z,20.74
2023-05-22T22:05:07.301Z,20.82
2023-05-22T22:07:36.891Z,20.59
2023-05-22T22:10:05.751Z,20.48
2023-05-22T22:12:33.893Z,20.66
2023-05-22T22:15:02.457Z,20.58
2023-05-22T22:17:30.706Z,20.61
2023-05-22T22:19:58.876Z,20.28
2023-05-22T22:22:27.044Z,20.30
2023-05-22T22:24:56.635Z,20.24
2023-05-22T22:27:25.554Z,20.02
2023-05-22T22:29:53.670Z,20.38
2023-05-22T22:32:21.838Z,20.18
2023-05-22T22:34:53.764Z,20.43
2023-05-22T22:37:22.077Z,20.30
2023-05-22T22:39:50.215Z,20.50
2023-05-22T22:42:19.749Z,20.18
2023-05-22T22:44:47.910Z,20.22
2023-05-22T22:47:16.061Z,20.15
2023-05-22T22:49:44.197Z,20.03
2023-05-22T22:52:12.353Z,20.11
2023-05-22T22:54:41.930Z,19.99
2023-05-22T22:57:12.685Z,19.71
2023-05-22T22:59:42.992Z,19.63
2023-05-22T23:02:11.169Z,19.85
2023-05-22T23:04:39.372Z,19.91
2023-05-22T23:07:08.106Z,19.89
2023-05-22T23:09:36.417Z,19.68
2023-05-22T23:12:06.443Z,19.76
2023-05-22T23:14:37.653Z,19.50
2023-05-22T23:17:07.234Z,19.41
2023-05-22T23:19:35.472Z,19.66
2023-05-22T23:22:03.668Z,19.70
2023-05-22T23:24:31.886Z,19.63
2023-05-22T23:27:00.159Z,19.67
2023-05-22T23:29:28.306Z,20.19
2023-05-22T23:31:56.676Z,19.38
2023-05-22T23:34:26.275Z,19.70
2023-05-22T23:36:54.416Z,19.75
2023-05-22T23:39:22.570Z,19.32
2023-05-22T23:41:54.278Z,19.41
2023-05-22T23:44:22.816Z,19.43
2023-05-22T23:46:51.090Z,19.51
2023-05-22T23:49:19.293Z,19.04
2023-05-22T23:51:48.922Z,19.50
2023-05-22T23:54:18.042Z,19.24
2023-05-22T23:56:46.241Z,19.22
2023-05-22T23:59:14.486Z,19.19
